Time;durP1;ratioP1;P1;durP2;ratioP2;P2;SDS_P1;SDS_P2;PMS_P1;PMS_P2;Temp;Humidity;BMP_temperature;BMP_pressure;BME280_temperature;BME280_humidity;BME280_pressure;Samples;Min_cycle;Max_cycle;Signal;HPM_P1;HPM_P2
2023/12/14 00:01:31;;;;;;;;;;;;;;;22.85;37.26;100866.19;5037298;28;20327;-44
2023/12/14 00:03:56;;;;;;;;;;;;;;;22.84;37.04;100878.91;5005237;28;19914;-44
2023/12/14 00:06:21;;;;;;;;;;;;;;;22.81;37.17;100876.59;5026933;28;19914;-45
2023/12/14 00:08:47;;;;;;;;;;;;;;;22.79;37.24;100888.66;5031599;28;19914;-44
2023/12/14 00:11:12;;;;;;;;;;;;;;;22.74;37.16;100886.53;5009461;28;19914;-45
2023/12/14 00:13:37;;;;;;;;;;;;;;;22.70;37.14;100896.94;5018439;28;19997;-44
2023/12/14 00:16:03;;;;;;;;;;;;;;;22.64;37.40;100903.13;5029479;28;20364;-44
2023/12/14 00:18:28;;;;;;;;;;;;;;;22.64;37.25;100907.69;5018738;28;19924;-43
2023/12/14 00:20:56;;;;;;;;;;;;;;;22.68;37.33;100911.69;5042310;28;19939;-43
2023/12/14 00:23:21;;;;;;;;;;;;;;;22.61;37.42;100910.81;5024771;28;19913;-44
2023/12/14 00:25:47;;;;;;;;;;;;;;;22.57;37.40;100923.91;5014009;28;19983;-43
2023/12/14 00:28:12;;;;;;;;;;;;;;;22.54;37.40;100921.56;5016650;28;20000;-44
2023/12/14 00:30:37;;;;;;;;;;;;;;;22.54;37.52;100931.56;5018205;28;20440;-44
2023/12/14 00:33:02;;;;;;;;;;;;;;;22.54;37.41;100937.81;5047435;28;19924;-43
2023/12/14 00:35:27;;;;;;;;;;;;;;;22.53;37.50;100940.75;5036427;28;19910;-43
2023/12/14 00:37:52;;;;;;;;;;;;;;;22.52;37.54;100944.50;5048736;28;19919;-43
2023/12/14 00:40:18;;;;;;;;;;;;;;;22.50;37.45;100947.38;5023140;28;19922;-43
2023/12/14 00:42:43;;;;;;;;;;;;;;;22.49;37.36;100944.88;5049682;28;19977;-42
2023/12/14 00:45:08;;;;;;;;;;;;;;;22.49;37.41;100951.13;5019426;28;19916;-43
2023/12/14 00:47:33;;;;;;;;;;;;;;;22.46;37.25;100960.44;5051954;28;19916;-43
2023/12/14 00:49:59;;;;;;;;;;;;;;;22.44;37.38;100956.28;5049349;28;19968;-43
2023/12/14 00:52:24;;;;;;;;;;;;;;;22.42;37.26;100958.31;5041320;28;19964;-43
2023/12/14 00:54:49;;;;;;;;;;;;;;;22.43;37.33;100965.44;5037417;28;19974;-43
2023/12/14 00:57:14;;;;;;;;;;;;;;;22.39;37.29;100966.84;5013521;28;19917;-43
2023/12/14 00:59:40;;;;;;;;;;;;;;;22.36;37.59;100967.22;5026354;28;19968;-46
2023/12/14 01:02:05;;;;;;;;;;;;;;;22.37;37.51;100977.84;5030562;28;20013;-43
2023/12/14 01:04:30;;;;;;;;;;;;;;;22.36;37.46;100983.47;5010736;28;19981;-44
2023/12/14 01:06:56;;;;;;;;;;;;;;;22.33;37.46;101000.09;5021760;28;19941;-45
2023/12/14 01:09:21;;;;;;;;;;;;;;;22.28;37.30;100994.41;5038024;28;20369;-45
2023/12/14 01:11:46;;;;;;;;;;;;;;;22.27;37.64;100992.75;5024654;28;19935;-48
2023/12/14 01:14:11;;;;;;;;;;;;;;;22.25;37.57;100995.63;5020930;28;19981;-49
2023/12/14 01:16:36;;;;;;;;;;;;;;;22.22;37.41;100996.03;5015197;28;20073;-44
2023/12/14 01:19:01;;;;;;;;;;;;;;;22.18;37.52;100998.25;5020781;28;19967;-45
2023/12/14 01:21:27;;;;;;;;;;;;;;;22.17;37.58;101007.41;5017040;28;20366;-45
2023/12/14 01:23:52;;;;;;;;;;;;;;;22.15;37.58;101014.03;5033176;28;19914;-49
2023/12/14 01:26:18;;;;;;;;;;;;;;;22.13;37.54;101019.66;5026953;28;19913;-47
2023/12/14 01:28:43;;;;;;;;;;;;;;;22.11;37.86;101021.66;5012065;28;19921;-45
2023/12/14 01:31:08;;;;;;;;;;;;;;;22.10;37.64;101030.81;5022538;28;19920;-47
2023/12/14 01:33:33;;;;;;;;;;;;;;;22.09;37.52;101036.41;5036844;28;19939;-46
2023/12/14 01:35:58;;;;;;;;;;;;;;;22.07;37.61;101031.19;5027879;28;19922;-47
2023/12/14 01:38:24;;;;;;;;;;;;;;;22.05;37.65;101030.53;5027094;28;19957;-46
2023/12/14 01:40:49;;;;;;;;;;;;;;;22.04;37.66;101044.25;5053516;28;19932;-45
2023/12/14 01:43:14;;;;;;;;;;;;;;;22.01;37.79;101042.78;5017478;28;20285;-43
2023/12/14 01:45:39;;;;;;;;;;;;;;;21.98;37.80;101048.53;5015779;28;19916;-46
2023/12/14 01:48:05;;;;;;;;;;;;;;;21.95;37.90;101048.91;5042686;28;19920;-47
2023/12/14 01:50:30;;;;;;;;;;;;;;;21.93;37.71;101051.81;5016926;28;20444;-46
2023/12/14 01:52:55;;;;;;;;;;;;;;;21.91;37.82;101064.69;5015144;28;19914;-43
2023/12/14 01:55:21;;;;;;;;;;;;;;;21.90;37.86;101070.28;5039310;28;19922;-44
2023/12/14 01:57:46;;;;;;;;;;;;;;;21.89;38.02;101072.16;5024698;28;19922;-45
2023/12/14 02:00:26;;;;;;;;;;;;;;;21.86;38.10;101072.50;5020226;28;19927;-45
2023/12/14 02:02:52;;;;;;;;;;;;;;;21.85;38.33;101084.38;5042418;28;19913;-47
2023/12/14 02:05:17;;;;;;;;;;;;;;;21.84;37.96;101085.41;5020195;28;20048;-44
2023/12/14 02:07:42;;;;;;;;;;;;;;;21.82;37.97;101090.16;5012413;28;19918;-46
2023/12/14 02:10:08;;;;;;;;;;;;;;;21.80;38.03;101086.78;5035980;28;19947;-43
2023/12/14 02:12:34;;;;;;;;;;;;;;;21.79;38.30;101095.09;5036498;28;19925;-44
2023/12/14 02:14:59;;;;;;;;;;;;;;;21.77;38.08;101089.84;5064626;28;19964;-45
2023/12/14 02:17:24;;;;;;;;;;;;;;;21.75;38.00;101088.34;5058296;28;19951;-43
2023/12/14 02:19:49;;;;;;;;;;;;;;;21.73;38.03;101093.13;5033180;28;19926;-45
2023/12/14 02:22:16;;;;;;;;;;;;;;;21.71;38.08;101098.72;5010154;28;19922;-45
2023/12/14 02:24:41;;;;;;;;;;;;;;;21.69;38.37;101107.00;5077325;28;19963;-43
2023/12/14 02:27:06;;;;;;;;;;;;;;;21.68;38.24;101118.03;5051509;28;20323;-43
2023/12/14 02:29:31;;;;;;;;;;;;;;;21.65;38.13;101121.09;5056984;28;19927;-46
2023/12/14 02:31:56;;;;;;;;;;;;;;;21.64;38.19;101120.25;5044467;28;19924;-43
2023/12/14 02:34:22;;;;;;;;;;;;;;;21.62;38.12;101126.84;5038363;28;19914;-45
2023/12/14 02:36:47;;;;;;;;;;;;;;;21.60;38.48;101137.88;5019148;28;19914;-42
2023/12/14 02:39:12;;;;;;;;;;;;;;;21.59;38.37;101135.34;5014547;28;19965;-43
2023/12/14 02:41:37;;;;;;;;;;;;;;;21.58;38.29;101137.22;5042328;28;19976;-43
2023/12/14 02:44:02;;;;;;;;;;;;;;;21.57;38.41;101134.69;5012178;28;19913;-43
2023/12/14 02:46:27;;;;;;;;;;;;;;;21.55;38.22;101139.44;5017886;28;20517;-43
2023/12/14 02:48:53;;;;;;;;;;;;;;;21.53;38.49;101146.88;5034684;28;19912;-44
2023/12/14 02:51:18;;;;;;;;;;;;;;;21.52;38.60;101156.03;5025960;28;19921;-43
2023/12/14 02:53:43;;;;;;;;;;;;;;;21.50;38.33;101156.22;5011321;28;19996;-43
2023/12/14 02:56:09;;;;;;;;;;;;;;;21.48;38.34;101155.53;5018724;28;19982;-45
2023/12/14 02:58:34;;;;;;;;;;;;;;;21.46;38.41;101158.44;5021387;28;20444;-44
2023/12/14 03:00:59;;;;;;;;;;;;;;;21.46;38.47;101161.13;5030807;28;20266;-46
2023/12/14 03:03:24;;;;;;;;;;;;;;;21.46;38.55;101166.56;5033578;28;19914;-44
2023/12/14 03:05:50;;;;;;;;;;;;;;;21.43;38.61;101175.00;5034498;28;19917;-47
2023/12/14 03:08:15;;;;;;;;;;;;;;;21.42;38.43;101178.75;5011198;28;20015;-45
2023/12/14 03:10:40;;;;;;;;;;;;;;;21.41;38.61;101176.22;5014941;28;19936;-45
2023/12/14 03:13:05;;;;;;;;;;;;;;;21.39;38.53;101186.38;5029376;28;19916;-47
2023/12/14 03:15:30;;;;;;;;;;;;;;;21.38;38.63;101187.41;5042231;28;19925;-45
2023/12/14 03:17:55;;;;;;;;;;;;;;;21.35;38.29;101180.47;5018961;28;19969;-47
2023/12/14 03:20:21;;;;;;;;;;;;;;;21.34;38.53;101183.38;5024927;28;19914;-46
2023/12/14 03:22:46;;;;;;;;;;;;;;;21.33;38.54;101184.41;5026624;28;20364;-46
2023/12/14 03:25:11;;;;;;;;;;;;;;;21.31;38.69;101183.69;5015091;28;19914;-45
2023/12/14 03:27:36;;;;;;;;;;;;;;;21.29;38.66;101186.56;5043273;28;19920;-43
2023/12/14 03:30:03;;;;;;;;;;;;;;;21.28;38.74;101197.56;5019577;28;20006;-43
2023/12/14 03:32:28;;;;;;;;;;;;;;;21.25;38.60;101209.59;5010092;28;20004;-44
2023/12/14 03:34:53;;;;;;;;;;;;;;;21.24;38.56;101210.59;5034097;28;20506;-44
2023/12/14 03:37:18;;;;;;;;;;;;;;;21.22;38.68;101212.63;5060068;28;20169;-46
2023/12/14 03:39:44;;;;;;;;;;;;;;;21.20;38.73;101212.81;5008781;28;19913;-47
2023/12/14 03:42:09;;;;;;;;;;;;;;;21.19;38.92;101218.38;5056338;28;19985;-45
2023/12/14 03:44:34;;;;;;;;;;;;;;;21.19;38.61;101223.78;5026334;28;19913;-44
2023/12/14 03:47:00;;;;;;;;;;;;;;;21.16;38.67;101216.06;5013509;28;19924;-46
2023/12/14 03:49:25;;;;;;;;;;;;;;;21.15;38.82;101217.91;5027617;28;19943;-47
2023/12/14 03:51:50;;;;;;;;;;;;;;;21.12;38.87;101220.97;5034373;28;19965;-47
2023/12/14 03:54:15;;;;;;;;;;;;;;;21.12;38.72;101220.97;5039872;28;19925;-47
2023/12/14 03:56:40;;;;;;;;;;;;;;;21.10;38.88;101225.69;5045839;28;19917;-45
2023/12/14 03:59:06;;;;;;;;;;;;;;;21.09;38.65;101231.28;5040413;28;19939;-47
2023/12/14 04:01:31;;;;;;;;;;;;;;;21.07;38.75;101227.91;5021451;28;20003;-48
2023/12/14 04:03:56;;;;;;;;;;;;;;;21.04;38.97;101234.50;5012385;28;19982;-45
2023/12/14 04:06:21;;;;;;;;;;;;;;;21.02;38.61;101233.84;5041820;28;19917;-45
2023/12/14 04:08:46;;;;;;;;;;;;;;;21.00;38.84;101232.34;5056709;28;19925;-44
2023/12/14 04:11:12;;;;;;;;;;;;;;;20.98;39.00;101229.78;5023391;28;19912;-44
2023/12/14 04:13:38;;;;;;;;;;;;;;;20.96;38.76;101232.69;5043963;28;20372;-46
2023/12/14 04:16:03;;;;;;;;;;;;;;;20.95;38.95;101236.41;5068664;28;19918;-44
2023/12/14 04:18:29;;;;;;;;;;;;;;;20.93;38.99;101241.13;5007534;28;19958;-46
2023/12/14 04:20:54;;;;;;;;;;;;;;;20.91;39.10;101240.47;5022138;28;19971;-47
2023/12/14 04:23:19;;;;;;;;;;;;;;;20.89;38.88;101239.78;5017983;28;19917;-45
2023/12/14 04:25:44;;;;;;;;;;;;;;;20.88;39.02;101250.78;5020256;28;19966;-47
2023/12/14 04:28:09;;;;;;;;;;;;;;;20.50;39.26;101196.50;5026890;28;19951;-44
2023/12/14 04:30:35;;;;;;;;;;;;;;;20.85;39.10;101261.94;5031935;28;19921;-46
2023/12/14 04:33:00;;;;;;;;;;;;;;;20.84;38.99;101271.06;5010065;28;19937;-44
2023/12/14 04:35:25;;;;;;;;;;;;;;;20.82;39.25;101265.00;5008290;28;19914;-46
2023/12/14 04:37:50;;;;;;;;;;;;;;;20.80;39.04;101259.75;5021916;28;19914;-46
2023/12/14 04:40:16;;;;;;;;;;;;;;;20.78;39.12;101264.50;5038280;28;19912;-46
2023/12/14 04:42:41;;;;;;;;;;;;;;;20.78;38.94;101277.16;5031270;28;19920;-44
2023/12/14 04:45:06;;;;;;;;;;;;;;;20.76;39.03;101274.63;5034726;28;19916;-46
2023/12/14 04:47:31;;;;;;;;;;;;;;;20.75;39.18;101282.91;5016849;28;19917;-45
2023/12/14 04:49:57;;;;;;;;;;;;;;;20.72;39.25;101287.63;5008673;28;19921;-45
2023/12/14 04:52:22;;;;;;;;;;;;;;;20.70;38.90;101294.22;5011426;28;19926;-43
2023/12/14 04:54:47;;;;;;;;;;;;;;;20.69;39.08;101306.91;5014730;28;19948;-45
2023/12/14 04:57:12;;;;;;;;;;;;;;;20.68;39.21;101318.69;5011141;28;19921;-45
2023/12/14 04:59:37;;;;;;;;;;;;;;;20.67;39.35;101318.88;5018961;28;19913;-46
2023/12/14 05:02:02;;;;;;;;;;;;;;;20.65;39.35;101323.63;5029533;28;19917;-45
2023/12/14 05:04:28;;;;;;;;;;;;;;;20.63;39.43;101333.75;5006834;28;20004;-47
2023/12/14 05:06:53;;;;;;;;;;;;;;;20.62;39.35;101329.38;5026301;28;19914;-45
2023/12/14 05:09:18;;;;;;;;;;;;;;;20.61;39.24;101335.78;5021513;28;19918;-46
2023/12/14 05:11:44;;;;;;;;;;;;;;;20.60;39.46;101347.59;5010447;28;19944;-46
2023/12/14 05:14:09;;;;;;;;;;;;;;;20.59;39.36;101349.44;5017398;28;19922;-46
2023/12/14 05:16:34;;;;;;;;;;;;;;;20.58;39.39;101357.72;5032327;28;19966;-48
2023/12/14 05:18:59;;;;;;;;;;;;;;;20.57;39.39;101362.28;5027731;28;20327;-43
2023/12/14 05:21:25;;;;;;;;;;;;;;;20.55;39.19;101367.00;5012868;28;19922;-44
2023/12/14 05:23:50;;;;;;;;;;;;;;;20.55;39.59;101375.09;5018134;28;19922;-46
2023/12/14 05:26:15;;;;;;;;;;;;;;;20.54;39.60;101373.44;5010225;28;19929;-46
2023/12/14 05:28:40;;;;;;;;;;;;;;;20.54;39.55;101378.00;5001584;28;20183;-46
2023/12/14 05:31:05;;;;;;;;;;;;;;;20.53;39.49;101382.56;5023217;28;19918;-42
2023/12/14 05:33:31;;;;;;;;;;;;;;;20.53;39.64;101385.25;5032194;28;19922;-46
2023/12/14 05:35:56;;;;;;;;;;;;;;;20.53;39.79;101390.66;5017186;28;19917;-48
2023/12/14 05:38:21;;;;;;;;;;;;;;;20.52;39.65;101390.81;5020451;28;20564;-44
2023/12/14 05:40:46;;;;;;;;;;;;;;;20.51;39.61;101397.22;5021003;28;19973;-44
2023/12/14 05:43:12;;;;;;;;;;;;;;;20.51;39.62;101397.22;5012582;28;20300;-44
2023/12/14 05:45:37;;;;;;;;;;;;;;;20.50;39.93;101403.66;5013116;28;19921;-45
2023/12/14 05:48:05;;;;;;;;;;;;;;;20.49;39.93;101418.16;5036966;28;20418;-44
2023/12/14 05:50:30;;;;;;;;;;;;;;;20.47;40.02;101415.59;5032896;28;19918;-46
2023/12/14 05:52:55;;;;;;;;;;;;;;;20.46;40.07;101420.16;5033855;28;19940;-43
2023/12/14 05:55:21;;;;;;;;;;;;;;;20.46;40.16;101433.66;5029208;28;19929;-48
2023/12/14 05:57:47;;;;;;;;;;;;;;;20.44;39.91;101430.28;5008620;28;20269;-46
2023/12/14 06:00:13;;;;;;;;;;;;;;;20.44;40.12;101443.78;5010267;28;19948;-45
2023/12/14 06:02:38;;;;;;;;;;;;;;;20.44;40.15;101445.66;5025447;28;19918;-43
2023/12/14 06:05:03;;;;;;;;;;;;;;;20.43;40.07;101452.03;5021214;28;19921;-47
2023/12/14 06:07:28;;;;;;;;;;;;;;;20.42;40.04;101443.09;5011501;28;19914;-43
2023/12/14 06:09:54;;;;;;;;;;;;;;;20.41;40.02;101463.03;5033245;28;19914;-45
2023/12/14 06:12:19;;;;;;;;;;;;;;;20.41;40.37;101457.63;5016699;28;19918;-45
2023/12/14 06:14:44;;;;;;;;;;;;;;;20.40;40.12;101466.75;5011781;28;19914;-45
2023/12/14 06:17:10;;;;;;;;;;;;;;;20.39;40.49;101467.75;5007731;28;19918;-44
2023/12/14 06:19:35;;;;;;;;;;;;;;;20.38;40.43;101466.03;5011308;28;19973;-45
2023/12/14 06:22:00;;;;;;;;;;;;;;;20.37;40.48;101477.88;5076697;28;19955;-44
2023/12/14 06:24:25;;;;;;;;;;;;;;;20.38;40.25;101481.41;5021526;28;19916;-43
2023/12/14 06:26:51;;;;;;;;;;;;;;;20.37;40.58;101480.56;5024648;28;19914;-43
2023/12/14 06:29:16;;;;;;;;;;;;;;;20.36;40.37;101488.84;5004773;28;19967;-43
2023/12/14 06:31:41;;;;;;;;;;;;;;;20.34;40.59;101496.25;5010112;28;19918;-44
2023/12/14 06:34:06;;;;;;;;;;;;;;;20.33;40.58;101503.50;5015999;28;19922;-43
2023/12/14 06:36:32;;;;;;;;;;;;;;;20.32;40.63;101504.53;5012086;28;19914;-43
2023/12/14 06:38:58;;;;;;;;;;;;;;;20.33;40.51;101508.06;5016618;28;20352;-43
2023/12/14 06:41:23;;;;;;;;;;;;;;;20.33;40.28;101510.75;5022080;28;19999;-44
2023/12/14 06:43:49;;;;;;;;;;;;;;;20.32;40.44;101509.94;5007017;28;19918;-46
2023/12/14 06:46:14;;;;;;;;;;;;;;;20.32;40.45;101514.47;5018892;28;20323;-48
2023/12/14 06:48:39;;;;;;;;;;;;;;;20.31;40.26;101513.63;5030139;28;19925;-45
2023/12/14 06:51:04;;;;;;;;;;;;;;;20.31;40.30;101523.59;5015684;28;19925;-43
2023/12/14 06:53:30;;;;;;;;;;;;;;;20.30;40.35;101527.28;5014651;28;19925;-44
2023/12/14 06:55:55;;;;;;;;;;;;;;;20.31;40.46;101523.59;5016876;28;19996;-45
2023/12/14 06:58:20;;;;;;;;;;;;;;;20.29;40.43;101523.75;5024181;28;20227;-45
2023/12/14 07:00:45;;;;;;;;;;;;;;;20.30;40.34;101519.19;5019435;28;19917;-43
2023/12/14 07:03:11;;;;;;;;;;;;;;;20.30;40.53;101529.97;5033209;28;19917;-45
2023/12/14 07:05:36;;;;;;;;;;;;;;;20.29;40.35;101522.91;5025244;28;19921;-43
2023/12/14 07:08:01;;;;;;;;;;;;;;;20.30;40.49;101533.53;5002945;28;19921;-44
2023/12/14 07:10:28;;;;;;;;;;;;;;;20.31;40.49;101537.09;5017484;28;20319;-44
2023/12/14 07:12:53;;;;;;;;;;;;;;;20.30;40.32;101536.22;5018565;28;19926;-45
2023/12/14 07:15:18;;;;;;;;;;;;;;;20.31;40.28;101556.84;5011700;28;19922;-44
2023/12/14 07:17:44;;;;;;;;;;;;;;;20.30;40.43;101562.38;5002890;28;19918;-45
2023/12/14 07:20:09;;;;;;;;;;;;;;;20.31;40.54;101566.81;5030630;28;20004;-46
2023/12/14 07:22:35;;;;;;;;;;;;;;;20.31;40.58;101573.06;5006135;28;20283;-44
2023/12/14 07:25:00;;;;;;;;;;;;;;;20.31;40.52;101578.44;5016932;28;19918;-45
2023/12/14 07:27:25;;;;;;;;;;;;;;;20.33;40.54;101584.53;5013992;28;20398;-44
2023/12/14 07:29:50;;;;;;;;;;;;;;;20.34;40.56;101585.38;5071495;28;19949;-44
2023/12/14 07:32:15;;;;;;;;;;;;;;;20.35;40.51;101593.31;5006199;28;19913;-44
2023/12/14 07:34:41;;;;;;;;;;;;;;;20.36;40.36;101597.72;5011692;28;20168;-43
2023/12/14 07:37:06;;;;;;;;;;;;;;;20.38;40.75;101600.25;5066948;28;19914;-45
2023/12/14 07:39:31;;;;;;;;;;;;;;;20.38;40.69;101600.25;5008409;28;20331;-46
2023/12/14 07:41:56;;;;;;;;;;;;;;;20.39;40.49;101599.22;5017648;28;19933;-44
2023/12/14 07:44:22;;;;;;;;;;;;;;;20.40;40.25;101606.34;5008254;28;19931;-44
2023/12/14 07:46:47;;;;;;;;;;;;;;;20.41;40.09;101608.03;5020827;28;19955;-43
2023/12/14 07:49:12;;;;;;;;;;;;;;;20.42;40.09;101609.72;5009428;28;19914;-44
2023/12/14 07:51:38;;;;;;;;;;;;;;;19.40;40.29;101454.78;5026192;28;19913;-44
2023/12/14 07:54:04;;;;;;;;;;;;;;;20.44;40.23;101615.81;5009497;28;19989;-44
2023/12/14 07:56:29;;;;;;;;;;;;;;;20.45;40.06;101629.16;5016447;28;19921;-43
2023/12/14 07:58:54;;;;;;;;;;;;;;;20.46;39.82;101624.59;5081598;28;20509;-44
2023/12/14 08:01:20;;;;;;;;;;;;;;;20.48;39.74;101638.84;5021232;28;19937;-43
2023/12/14 08:03:46;;;;;;;;;;;;;;;20.50;39.89;101644.91;5022019;28;19923;-43
2023/12/14 08:06:11;;;;;;;;;;;;;;;20.51;39.99;101646.59;5017203;28;20087;-45
2023/12/14 08:08:37;;;;;;;;;;;;;;;20.53;39.80;101658.09;5010209;28;19929;-44
2023/12/14 08:11:03;;;;;;;;;;;;;;;20.55;39.51;101657.94;5016257;28;19991;-45
2023/12/14 08:13:28;;;;;;;;;;;;;;;20.56;39.76;101665.88;5033932;28;19981;-44
2023/12/14 08:15:53;;;;;;;;;;;;;;;20.57;39.47;101661.34;5015876;28;20215;-46
2023/12/14 08:18:18;;;;;;;;;;;;;;;20.59;39.26;101668.25;5012885;28;19963;-45
2023/12/14 08:20:43;;;;;;;;;;;;;;;20.61;39.49;101671.66;5018268;28;19916;-49
2023/12/14 08:23:09;;;;;;;;;;;;;;;20.63;39.32;101674.19;5022851;28;19922;-46
2023/12/14 08:25:34;;;;;;;;;;;;;;;20.65;39.30;101674.88;5009463;28;19918;-49
2023/12/14 08:27:59;;;;;;;;;;;;;;;20.67;39.17;101676.41;5032156;28;19916;-47
2023/12/14 08:30:24;;;;;;;;;;;;;;;20.69;39.22;101684.34;5024907;28;20537;-48
2023/12/14 08:32:49;;;;;;;;;;;;;;;20.70;39.35;101683.34;5005305;28;19918;-45
2023/12/14 08:35:14;;;;;;;;;;;;;;;20.72;39.35;101684.00;5010148;28;19917;-45
2023/12/14 08:37:40;;;;;;;;;;;;;;;20.75;38.97;101691.81;5025982;28;19991;-44
2023/12/14 08:40:05;;;;;;;;;;;;;;;20.77;38.88;101689.78;5009708;28;19918;-45
2023/12/14 08:42:30;;;;;;;;;;;;;;;20.78;39.11;101696.91;5052548;28;19916;-47
2023/12/14 08:44:56;;;;;;;;;;;;;;;20.81;39.09;101706.50;5024716;28;19987;-46
2023/12/14 08:47:21;;;;;;;;;;;;;;;20.82;38.76;101708.25;5013926;28;19914;-46
2023/12/14 08:49:46;;;;;;;;;;;;;;;20.85;39.00;101716.00;5022427;28;19927;-45
2023/12/14 08:52:11;;;;;;;;;;;;;;;20.86;38.87;101715.84;5033321;28;19947;-47
2023/12/14 08:54:37;;;;;;;;;;;;;;;20.89;38.91;101722.78;5006617;28;19926;-44
2023/12/14 08:57:02;;;;;;;;;;;;;;;20.91;38.54;101728.88;5034596;28;19979;-46
2023/12/14 08:59:27;;;;;;;;;;;;;;;20.94;38.88;101731.25;5037337;28;19916;-46
2023/12/14 09:01:52;;;;;;;;;;;;;;;20.95;38.80;101741.06;5016052;28;19925;-48
2023/12/14 09:04:18;;;;;;;;;;;;;;;20.97;38.64;101741.75;5014462;28;19918;-49
2023/12/14 09:06:44;;;;;;;;;;;;;;;21.00;38.56;101744.13;5031699;28;20444;-46
2023/12/14 09:09:10;;;;;;;;;;;;;;;21.02;38.69;101752.06;5015561;28;19916;-46
2023/12/14 09:11:36;;;;;;;;;;;;;;;21.04;38.42;101747.34;5014464;28;19918;-44
2023/12/14 09:14:02;;;;;;;;;;;;;;;21.05;38.41;101755.28;5045968;28;19918;-45
2023/12/14 09:16:27;;;;;;;;;;;;;;;21.06;38.45;101748.88;5070270;28;20309;-44
2023/12/14 09:18:52;;;;;;;;;;;;;;;21.09;38.59;101759.38;5011525;28;19914;-44
2023/12/14 09:21:17;;;;;;;;;;;;;;;21.11;38.31;101768.19;5021032;28;19945;-48
2023/12/14 09:23:43;;;;;;;;;;;;;;;21.12;38.21;101764.47;5018680;28;20034;-45
2023/12/14 09:26:08;;;;;;;;;;;;;;;21.16;38.12;101770.41;5072840;28;19928;-45
2023/12/14 09:28:33;;;;;;;;;;;;;;;21.17;38.38;101769.38;5020585;28;19916;-46
2023/12/14 09:30:58;;;;;;;;;;;;;;;21.19;38.43;101768.19;5029411;28;19959;-47
2023/12/14 09:33:23;;;;;;;;;;;;;;;21.21;38.10;101773.47;5011357;28;19914;-44
2023/12/14 09:35:48;;;;;;;;;;;;;;;21.23;38.25;101784.94;5078273;28;19922;-44
2023/12/14 09:38:17;;;;;;;;;;;;;;;21.26;37.93;101781.91;5034365;28;19920;-47
2023/12/14 09:40:43;;;;;;;;;;;;;;;21.28;38.17;101788.03;5022857;28;19962;-45
2023/12/14 09:43:08;;;;;;;;;;;;;;;21.31;37.84;101787.69;5019349;28;19918;-44
2023/12/14 09:45:33;;;;;;;;;;;;;;;21.34;37.92;101789.25;5034799;28;19939;-45
2023/12/14 09:47:59;;;;;;;;;;;;;;;21.36;38.03;101798.03;5067309;28;19912;-43
2023/12/14 09:50:25;;;;;;;;;;;;;;;21.39;37.87;101795.03;5012411;28;19967;-45
2023/12/14 09:52:50;;;;;;;;;;;;;;;21.42;37.77;101800.13;5070785;28;19913;-43
2023/12/14 09:55:15;;;;;;;;;;;;;;;21.43;37.94;101808.06;5021867;28;19924;-43
2023/12/14 09:57:41;;;;;;;;;;;;;;;21.47;37.62;101811.28;5027308;28;19922;-46
2023/12/14 10:00:10;;;;;;;;;;;;;;;21.50;37.58;101813.66;5029952;28;20411;-45
2023/12/14 10:02:35;;;;;;;;;;;;;;;21.52;37.46;101814.34;5018936;28;19923;-43
2023/12/14 10:05:00;;;;;;;;;;;;;;;21.55;37.52;101810.47;5008295;28;19914;-45
2023/12/14 10:07:25;;;;;;;;;;;;;;;21.57;37.61;101809.28;5029692;28;19962;-48
2023/12/14 10:09:52;;;;;;;;;;;;;;;21.60;37.29;101814.38;5037572;28;19977;-45
2023/12/14 10:12:18;;;;;;;;;;;;;;;21.63;37.24;101826.72;5024672;28;20095;-45
2023/12/14 10:14:43;;;;;;;;;;;;;;;21.67;37.45;101828.09;5089981;28;19918;-49
2023/12/14 10:17:16;;;;;;;;;;;;;;;21.70;37.13;101830.47;5037801;28;19921;-48
2023/12/14 10:19:42;;;;;;;;;;;;;;;21.73;37.33;101840.97;5006245;28;20332;-45
2023/12/14 10:22:08;;;;;;;;;;;;;;;21.76;37.00;101843.34;5060311;28;19922;-46
2023/12/14 10:24:33;;;;;;;;;;;;;;;21.78;36.99;101852.13;5027475;28;20265;-46
2023/12/14 10:26:58;;;;;;;;;;;;;;;21.82;37.00;101855.38;5016738;28;19921;-45
2023/12/14 10:29:24;;;;;;;;;;;;;;;21.84;36.99;101854.19;5017871;28;20061;-49
2023/12/14 10:31:49;;;;;;;;;;;;;;;21.88;36.87;101860.13;5063811;28;20030;-45
2023/12/14 10:34:15;;;;;;;;;;;;;;;21.89;36.84;101857.25;5030032;28;19918;-46
2023/12/14 10:36:40;;;;;;;;;;;;;;;21.92;36.95;101856.94;5017017;28;19958;-47
2023/12/14 10:39:06;;;;;;;;;;;;;;;21.94;36.60;101854.88;5066386;28;19914;-46
2023/12/14 10:41:31;;;;;;;;;;;;;;;21.99;36.85;101861.66;5065083;28;19925;-46
2023/12/14 10:43:57;;;;;;;;;;;;;;;21.99;36.74;101859.81;5020904;28;19917;-46
2023/12/14 10:46:23;;;;;;;;;;;;;;;22.01;36.86;101862.38;5020386;28;19972;-47
2023/12/14 10:48:50;;;;;;;;;;;;;;;22.02;36.75;101869.47;5079396;28;19919;-48
2023/12/14 10:51:17;;;;;;;;;;;;;;;22.08;36.62;101872.34;5004986;28;19918;-45
2023/12/14 10:53:48;;;;;;;;;;;;;;;22.13;36.34;101880.00;5071770;28;19924;-49
2023/12/14 10:56:14;;;;;;;;;;;;;;;22.13;36.58;101878.16;5021545;28;19929;-48
2023/12/14 10:58:52;;;;;;;;;;;;;;;22.19;36.53;101880.19;5008848;28;19917;-45
2023/12/14 11:01:23;;;;;;;;;;;;;;;22.23;36.34;101877.16;5015267;28;19918;-45
2023/12/14 11:03:50;;;;;;;;;;;;;;;22.26;36.15;101874.09;5019622;28;19940;-49
2023/12/14 11:06:24;;;;;;;;;;;;;;;22.30;36.31;101872.75;5016008;28;19914;-44
2023/12/14 11:08:51;;;;;;;;;;;;;;;22.43;36.03;101883.97;5014276;28;19914;-45
2023/12/14 11:11:20;;;;;;;;;;;;;;;22.49;35.98;101879.72;5026773;28;19914;-48
2023/12/14 11:13:46;;;;;;;;;;;;;;;22.50;35.75;101889.53;5013117;28;19932;-46
2023/12/14 11:16:11;;;;;;;;;;;;;;;22.51;35.51;101888.50;5019936;28;19975;-44
2023/12/14 11:18:36;;;;;;;;;;;;;;;22.54;35.56;101885.47;5024943;28;19921;-44
2023/12/14 11:21:01;;;;;;;;;;;;;;;22.56;35.56;101891.59;5025058;28;19925;-47
2023/12/14 11:23:30;;;;;;;;;;;;;;;22.58;35.52;101900.38;5015424;28;19939;-47
2023/12/14 11:25:59;;;;;;;;;;;;;;;22.59;35.47;101894.78;5028804;28;19962;-45
2023/12/14 11:28:24;;;;;;;;;;;;;;;22.64;35.34;101902.41;5021790;28;19918;-49
2023/12/14 11:30:50;;;;;;;;;;;;;;;22.67;35.41;101894.78;5003714;28;19930;-46
2023/12/14 11:33:16;;;;;;;;;;;;;;;22.70;35.30;101909.88;5017282;28;19957;-46
2023/12/14 11:35:41;;;;;;;;;;;;;;;22.74;35.24;101908.53;5015771;28;19917;-49
2023/12/14 11:38:13;;;;;;;;;;;;;;;22.76;35.04;101911.91;5012991;28;19914;-47
2023/12/14 11:40:44;;;;;;;;;;;;;;;22.76;35.26;101911.06;5021620;28;19920;-47
2023/12/14 11:43:09;;;;;;;;;;;;;;;22.77;35.34;101921.75;5006364;28;19914;-48
2023/12/14 11:45:35;;;;;;;;;;;;;;;22.80;35.19;101931.38;5003000;28;19967;-45
2023/12/14 11:48:04;;;;;;;;;;;;;;;22.81;35.34;101927.66;5028352;28;19925;-46
2023/12/14 11:50:29;;;;;;;;;;;;;;;22.85;34.95;101932.59;5023552;28;20277;-47
2023/12/14 11:52:55;;;;;;;;;;;;;;;22.88;34.88;101932.22;5010252;28;19964;-45
2023/12/14 11:55:21;;;;;;;;;;;;;;;22.93;34.82;101929.88;5071467;28;19997;-46
2023/12/14 11:57:46;;;;;;;;;;;;;;;23.01;34.85;101933.63;5034519;28;19912;-45
2023/12/14 12:00:12;;;;;;;;;;;;;;;23.04;34.51;101939.56;5005154;28;19914;-45
2023/12/14 12:02:37;;;;;;;;;;;;;;;23.07;34.51;101930.22;5051333;28;19917;-48
2023/12/14 12:05:03;;;;;;;;;;;;;;;23.09;34.63;101942.59;5062585;28;20383;-48
2023/12/14 12:07:28;;;;;;;;;;;;;;;23.15;34.46;101941.03;5009704;28;19949;-45
2023/12/14 12:09:53;;;;;;;;;;;;;;;23.19;34.44;101943.28;5019944;28;20353;-45
2023/12/14 12:12:19;;;;;;;;;;;;;;;23.24;34.24;101933.78;5022824;28;19918;-46
2023/12/14 12:14:44;;;;;;;;;;;;;;;23.29;34.05;101932.22;5007957;28;20008;-45
2023/12/14 12:17:09;;;;;;;;;;;;;;;23.32;34.11;101933.72;5023752;28;19913;-45
2023/12/14 12:19:35;;;;;;;;;;;;;;;23.34;34.30;101935.25;5019818;28;20472;-45
2023/12/14 12:22:00;;;;;;;;;;;;;;;23.36;34.35;101938.66;5079951;28;20035;-45
2023/12/14 12:24:26;;;;;;;;;;;;;;;23.37;33.98;101939.50;5014782;28;19914;-46
2023/12/14 12:26:51;;;;;;;;;;;;;;;23.39;34.22;101941.00;5014322;28;19916;-48